Terminal Aerodrome Forecast
Issued by NWS Cleveland, OH

Home | Current Version | Previous Version | Text Only | Print | Product List | Glossary On
Versions: 1 2 3 4 5 6 7 8 9 10 11 12 13 14 15 16 17 18
000
FTUS41 KCLE 210500
TAFMFD
TAF
KMFD 210540Z 2106/2206 21010KT P6SM VCSH SCT025 BKN060
     FM210800 21010KT P6SM VCSH SCT025 BKN060
      TEMPO 2108/2110 3SM -TSRA BR BKN025CB
     FM211100 22012KT 5SM BR SCT006 OVC015
      TEMPO 2111/2114 BKN006
     FM211500 25012G20KT P6SM OVC018
     FM212200 30015KT P6SM VCSH BKN025
     FM220300 33010KT P6SM BKN035=

USA.gov is the U.S. government's official web portal to all federal, state and local government web resources and services.